Time;durP1;ratioP1;P1;durP2;ratioP2;P2;SDS_P1;SDS_P2;PMS_P1;PMS_P2;Temp;Humidity;BMP_temperature;BMP_pressure;BME280_temperature;BME280_humidity;BME280_pressure;Samples;Min_cycle;Max_cycle;Signal;HPM_P1;HPM_P2
2021/10/19 00:00:13;;;;;;;0.10;0.10;;;;;;;;;;10436632;28;20483;-64
2021/10/19 00:05:16;;;;;;;0.10;0.10;;;;;;;;;;10434295;28;20045;-64
2021/10/19 00:10:21;;;;;;;0.10;0.10;;;;;;;;;;10436538;28;20128;-64
2021/10/19 00:15:23;;;;;;;0.10;0.10;;;;;;;;;;10436992;28;20048;-63
2021/10/19 00:20:26;;;;;;;0.10;0.10;;;;;;;;;;10438579;28;20059;-63
2021/10/19 00:25:30;;;;;;;0.10;0.10;;;;;;;;;;10437329;28;20528;-64
2021/10/19 00:30:33;;;;;;;0.10;0.10;;;;;;;;;;10437050;28;20788;-63
2021/10/19 00:35:37;;;;;;;0.10;0.10;;;;;;;;;;10435926;28;20128;-63
2021/10/19 00:40:41;;;;;;;0.10;0.10;;;;;;;;;;10432985;28;20116;-63
2021/10/19 00:46:02;;;;;;;0.13;0.13;;;;;;;;;;10438298;28;20088;-64
2021/10/19 00:51:05;;;;;;;0.10;0.10;;;;;;;;;;10436362;28;20990;-63
2021/10/19 00:56:10;;;;;;;0.10;0.10;;;;;;;;;;10436437;28;20048;-64
2021/10/19 01:01:13;;;;;;;0.10;0.10;;;;;;;;;;10438460;28;20045;-64
2021/10/19 01:06:17;;;;;;;0.10;0.10;;;;;;;;;;10436246;28;20132;-64
2021/10/19 01:11:22;;;;;;;0.10;0.10;;;;;;;;;;10436805;28;20870;-64
2021/10/19 01:16:28;;;;;;;0.10;0.10;;;;;;;;;;10437730;28;20087;-63
2021/10/19 01:21:33;;;;;;;0.10;0.10;;;;;;;;;;10441016;28;20049;-63
2021/10/19 01:26:43;;;;;;;0.10;0.10;;;;;;;;;;10440012;28;20045;-63
2021/10/19 01:31:49;;;;;;;0.10;0.10;;;;;;;;;;10437574;28;20124;-63
2021/10/19 01:36:57;;;;;;;0.20;0.20;;;;;;;;;;10439204;28;20118;-63
2021/10/19 01:42:00;;;;;;;0.10;0.10;;;;;;;;;;10437239;28;20061;-63
2021/10/19 01:47:18;;;;;;;0.10;0.10;;;;;;;;;;10440676;28;20041;-63
2021/10/19 01:52:23;;;;;;;0.10;0.10;;;;;;;;;;10446820;28;20099;-63
2021/10/19 01:57:27;;;;;;;0.10;0.10;;;;;;;;;;10441834;28;20053;-63
2021/10/19 02:02:30;;;;;;;0.10;0.10;;;;;;;;;;10446975;28;20391;-63
2021/10/19 02:07:34;;;;;;;0.10;0.10;;;;;;;;;;10446822;28;20970;-63
2021/10/19 02:12:38;;;;;;;0.10;0.10;;;;;;;;;;10447300;28;20053;-63
2021/10/19 02:17:45;;;;;;;0.10;0.10;;;;;;;;;;10439810;28;20049;-63
2021/10/19 02:22:49;;;;;;;0.10;0.10;;;;;;;;;;10446797;28;20151;-64
2021/10/19 02:27:52;;;;;;;0.10;0.10;;;;;;;;;;10444276;28;20045;-64
2021/10/19 02:32:55;;;;;;;0.10;0.10;;;;;;;;;;10445524;28;20063;-64
2021/10/19 02:38:00;;;;;;;0.10;0.10;;;;;;;;;;10445728;28;20506;-63
2021/10/19 02:43:03;;;;;;;0.10;0.10;;;;;;;;;;10446285;28;20048;-63
2021/10/19 02:48:05;;;;;;;0.10;0.10;;;;;;;;;;10442936;28;20056;-63
2021/10/19 02:53:11;;;;;;;0.10;0.10;;;;;;;;;;10444843;28;20391;-63
2021/10/19 02:58:15;;;;;;;0.10;0.10;;;;;;;;;;10440620;28;20045;-64
2021/10/19 03:03:18;;;;;;;0.10;0.10;;;;;;;;;;10443567;28;20706;-64
2021/10/19 03:08:23;;;;;;;0.10;0.10;;;;;;;;;;10445114;28;20040;-63
2021/10/19 03:13:28;;;;;;;0.10;0.10;;;;;;;;;;10443749;28;20051;-63
2021/10/19 03:18:51;;;;;;;0.10;0.10;;;;;;;;;;10440347;28;21014;-63
2021/10/19 03:23:55;;;;;;;0.15;0.10;;;;;;;;;;10440141;28;20057;-64
2021/10/19 03:29:02;;;;;;;0.10;0.10;;;;;;;;;;10441337;28;20067;-64
2021/10/19 03:34:05;;;;;;;0.10;0.10;;;;;;;;;;10441920;28;20679;-63
2021/10/19 03:39:09;;;;;;;0.10;0.10;;;;;;;;;;10443096;28;20037;-63
2021/10/19 03:44:12;;;;;;;0.10;0.10;;;;;;;;;;10442460;28;20087;-63
2021/10/19 03:49:16;;;;;;;0.10;0.10;;;;;;;;;;10443104;28;20049;-64
2021/10/19 03:54:20;;;;;;;0.10;0.10;;;;;;;;;;10436504;28;20085;-63
2021/10/19 03:59:23;;;;;;;0.10;0.10;;;;;;;;;;10441085;28;20049;-63
2021/10/19 04:04:26;;;;;;;0.10;0.10;;;;;;;;;;10441013;28;20047;-63
2021/10/19 04:09:31;;;;;;;0.10;0.10;;;;;;;;;;10440841;28;20132;-62
2021/10/19 04:14:35;;;;;;;0.10;0.10;;;;;;;;;;10439243;28;20068;-63
2021/10/19 04:19:38;;;;;;;0.10;0.10;;;;;;;;;;10441219;28;20051;-63
2021/10/19 04:24:42;;;;;;;0.10;0.10;;;;;;;;;;10439025;28;20124;-64
2021/10/19 04:29:49;;;;;;;0.10;0.10;;;;;;;;;;10435672;28;20037;-64
2021/10/19 04:34:52;;;;;;;0.10;0.10;;;;;;;;;;10436774;28;20040;-63
2021/10/19 04:39:58;;;;;;;0.10;0.10;;;;;;;;;;10436284;28;20049;-62
2021/10/19 04:45:02;;;;;;;0.10;0.10;;;;;;;;;;10435429;28;20157;-64
2021/10/19 04:50:05;;;;;;;0.20;0.20;;;;;;;;;;10434884;28;20053;-62
2021/10/19 04:55:10;;;;;;;0.10;0.10;;;;;;;;;;10431719;28;20049;-63
2021/10/19 05:00:13;;;;;;;0.10;0.10;;;;;;;;;;10439978;28;20093;-63
2021/10/19 05:05:16;;;;;;;0.10;0.10;;;;;;;;;;10431104;28;20126;-63
2021/10/19 05:10:22;;;;;;;0.10;0.10;;;;;;;;;;10436131;28;20066;-63
2021/10/19 05:15:26;;;;;;;0.10;0.10;;;;;;;;;;10436220;28;20412;-63
2021/10/19 05:20:29;;;;;;;0.08;0.08;;;;;;;;;;10435914;28;20145;-63
2021/10/19 05:25:33;;;;;;;0.10;0.10;;;;;;;;;;10435587;28;20051;-63
2021/10/19 05:30:36;;;;;;;0.10;0.10;;;;;;;;;;10434009;28;20120;-63
2021/10/19 05:35:38;;;;;;;0.10;0.10;;;;;;;;;;10436062;28;20045;-63
2021/10/19 05:40:42;;;;;;;0.10;0.10;;;;;;;;;;10433751;28;20044;-71
2021/10/19 05:45:46;;;;;;;0.10;0.10;;;;;;;;;;10433060;28;20501;-63
2021/10/19 05:50:49;;;;;;;0.10;0.10;;;;;;;;;;10435123;28;20053;-62
2021/10/19 05:55:53;;;;;;;0.10;0.10;;;;;;;;;;10434950;28;20061;-62
2021/10/19 06:00:56;;;;;;;0.10;0.10;;;;;;;;;;10432210;28;20041;-62
2021/10/19 06:05:59;;;;;;;0.10;0.10;;;;;;;;;;10433236;28;20774;-63
2021/10/19 06:11:03;;;;;;;0.10;0.10;;;;;;;;;;10434182;28;20044;-62
2021/10/19 06:16:06;;;;;;;0.10;0.10;;;;;;;;;;10434277;28;20072;-62
2021/10/19 06:21:08;;;;;;;0.10;0.10;;;;;;;;;;10432688;28;20605;-62
2021/10/19 06:26:12;;;;;;;0.10;0.10;;;;;;;;;;10432251;28;20114;-63
2021/10/19 06:31:15;;;;;;;0.10;0.10;;;;;;;;;;10432128;28;20045;-62
2021/10/19 06:36:18;;;;;;;0.10;0.10;;;;;;;;;;10435789;28;20051;-63
2021/10/19 06:41:22;;;;;;;0.10;0.10;;;;;;;;;;10438082;28;20057;-63
2021/10/19 06:46:25;;;;;;;0.10;0.10;;;;;;;;;;10440366;28;20037;-63
2021/10/19 06:51:28;;;;;;;0.00;0.00;;;;;;;;;;10441935;28;20120;-63
2021/10/19 06:56:32;;;;;;;0.10;0.10;;;;;;;;;;10439405;28;20826;-63
2021/10/19 07:01:35;;;;;;;0.10;0.10;;;;;;;;;;10443345;28;20055;-63
2021/10/19 07:06:38;;;;;;;0.10;0.10;;;;;;;;;;10437909;28;21144;-63
2021/10/19 07:11:42;;;;;;;0.00;0.00;;;;;;;;;;10442360;28;20039;-64
2021/10/19 07:16:47;;;;;;;0.10;0.10;;;;;;;;;;10436966;28;20047;-64
2021/10/19 07:21:50;;;;;;;0.10;0.10;;;;;;;;;;10437901;28;20044;-65
2021/10/19 07:26:55;;;;;;;0.10;0.10;;;;;;;;;;10437917;28;20499;-65
2021/10/19 07:31:57;;;;;;;0.10;0.10;;;;;;;;;;10436089;28;20053;-65
2021/10/19 07:37:00;;;;;;;0.10;0.10;;;;;;;;;;10434266;28;20458;-65
2021/10/19 07:42:04;;;;;;;0.10;0.10;;;;;;;;;;10437385;28;20453;-64
2021/10/19 07:47:07;;;;;;;0.10;0.10;;;;;;;;;;10437397;28;20047;-65
2021/10/19 07:52:12;;;;;;;0.05;0.05;;;;;;;;;;10438378;28;20148;-65
2021/10/19 07:57:16;;;;;;;0.10;0.10;;;;;;;;;;10436954;28;20049;-65
2021/10/19 08:02:19;;;;;;;0.00;0.00;;;;;;;;;;10438797;28;20051;-65
2021/10/19 08:07:22;;;;;;;0.10;0.10;;;;;;;;;;10432896;28;20110;-65
2021/10/19 08:12:26;;;;;;;0.00;0.00;;;;;;;;;;10437871;28;20055;-65
2021/10/19 08:17:29;;;;;;;0.00;0.00;;;;;;;;;;10434840;28;20056;-65
2021/10/19 08:22:33;;;;;;;0.10;0.10;;;;;;;;;;10436091;28;20045;-64
2021/10/19 08:27:38;;;;;;;0.10;0.10;;;;;;;;;;10435951;28;20404;-65
2021/10/19 08:32:41;;;;;;;0.10;0.10;;;;;;;;;;10435729;28;20033;-65
2021/10/19 08:37:44;;;;;;;0.10;0.10;;;;;;;;;;10436051;28;20049;-65
2021/10/19 08:42:51;;;;;;;0.00;0.00;;;;;;;;;;10432908;28;20041;-65
2021/10/19 08:47:55;;;;;;;0.05;0.05;;;;;;;;;;10437549;28;20049;-65
2021/10/19 08:52:58;;;;;;;0.00;0.00;;;;;;;;;;10435252;28;20049;-65
2021/10/19 08:58:03;;;;;;;0.10;0.10;;;;;;;;;;10434886;28;20513;-65
2021/10/19 09:03:06;;;;;;;0.00;0.00;;;;;;;;;;10436641;28;20936;-65
2021/10/19 09:08:11;;;;;;;0.00;0.00;;;;;;;;;;10435308;28;20060;-65
2021/10/19 09:13:16;;;;;;;0.00;0.00;;;;;;;;;;10433719;28;20519;-64
2021/10/19 09:18:20;;;;;;;0.00;0.00;;;;;;;;;;10433677;28;20123;-65
2021/10/19 09:23:24;;;;;;;0.03;0.03;;;;;;;;;;10435179;28;20047;-63
2021/10/19 09:28:34;;;;;;;0.00;0.00;;;;;;;;;;10435498;28;20383;-63
2021/10/19 09:33:36;;;;;;;0.10;0.10;;;;;;;;;;10434200;28;20844;-63
2021/10/19 09:38:48;;;;;;;0.00;0.00;;;;;;;;;;10434544;28;20505;-64
2021/10/19 09:43:52;;;;;;;0.00;0.00;;;;;;;;;;10430111;28;20115;-63
2021/10/19 09:49:22;;;;;;;0.00;0.00;;;;;;;;;;10433160;28;20045;-63
2021/10/19 09:54:27;;;;;;;0.00;0.00;;;;;;;;;;10433199;28;20053;-63
2021/10/19 09:59:31;;;;;;;0.00;0.00;;;;;;;;;;10434944;28;20052;-63
2021/10/19 10:04:34;;;;;;;0.00;0.00;;;;;;;;;;10434196;28;20411;-62
2021/10/19 10:09:37;;;;;;;0.00;0.00;;;;;;;;;;10435252;28;20071;-63
2021/10/19 10:14:42;;;;;;;0.00;0.00;;;;;;;;;;10442836;28;20529;-64
2021/10/19 10:19:45;;;;;;;0.00;0.00;;;;;;;;;;10441380;28;20052;-64
2021/10/19 10:25:02;;;;;;;0.00;0.00;;;;;;;;;;10443156;28;20139;-63
2021/10/19 10:30:17;;;;;;;0.00;0.00;;;;;;;;;;10445522;28;20620;-64
2021/10/19 10:35:23;;;;;;;0.03;0.03;;;;;;;;;;10439704;28;20078;-63
2021/10/19 10:40:26;;;;;;;0.00;0.00;;;;;;;;;;10443990;28;20041;-64
2021/10/19 10:45:31;;;;;;;0.10;0.10;;;;;;;;;;10439886;28;20143;-64
2021/10/19 10:50:35;;;;;;;0.00;0.00;;;;;;;;;;10438386;28;20056;-63
2021/10/19 10:55:39;;;;;;;0.05;0.05;;;;;;;;;;10436861;28;20051;-63
2021/10/19 11:00:43;;;;;;;0.10;0.10;;;;;;;;;;10440554;28;20049;-63
2021/10/19 11:05:51;;;;;;;0.10;0.10;;;;;;;;;;10437598;28;20053;-63
2021/10/19 11:11:02;;;;;;;0.00;0.00;;;;;;;;;;10440103;28;20045;-63
2021/10/19 11:16:06;;;;;;;0.10;0.10;;;;;;;;;;10438258;28;20055;-63
2021/10/19 11:21:09;;;;;;;0.00;0.00;;;;;;;;;;10435360;28;20131;-63
2021/10/19 11:26:12;;;;;;;0.00;0.00;;;;;;;;;;10438594;28;20059;-63
2021/10/19 11:31:17;;;;;;;0.00;0.00;;;;;;;;;;10437788;28;20466;-63
2021/10/19 11:36:20;;;;;;;0.00;0.00;;;;;;;;;;10436323;28;20139;-63
2021/10/19 11:41:23;;;;;;;0.08;0.08;;;;;;;;;;10439147;28;20395;-63
2021/10/19 11:46:28;;;;;;;0.03;0.00;;;;;;;;;;10437103;28;20136;-63
2021/10/19 11:51:31;;;;;;;0.00;0.00;;;;;;;;;;10438068;28;20127;-63
2021/10/19 11:56:34;;;;;;;0.00;0.00;;;;;;;;;;10434637;28;20476;-63
2021/10/19 12:01:39;;;;;;;0.00;0.00;;;;;;;;;;10438142;28;20074;-63
2021/10/19 12:06:44;;;;;;;0.00;0.00;;;;;;;;;;10434966;28;20056;-63
2021/10/19 12:11:48;;;;;;;0.00;0.00;;;;;;;;;;10437526;28;20037;-63
2021/10/19 12:16:54;;;;;;;0.00;0.00;;;;;;;;;;10435653;28;20045;-63
2021/10/19 12:21:57;;;;;;;0.00;0.00;;;;;;;;;;10436089;28;20059;-63
2021/10/19 12:27:01;;;;;;;0.00;0.00;;;;;;;;;;10432824;28;20063;-63
2021/10/19 12:32:06;;;;;;;0.00;0.00;;;;;;;;;;10434673;28;20049;-63
2021/10/19 12:37:10;;;;;;;0.00;0.00;;;;;;;;;;10437008;28;20057;-63
2021/10/19 12:42:13;;;;;;;0.00;0.00;;;;;;;;;;10435968;28;20041;-63
2021/10/19 12:47:17;;;;;;;0.00;0.00;;;;;;;;;;10435047;28;20495;-63
2021/10/19 12:52:20;;;;;;;0.00;0.00;;;;;;;;;;10435631;28;20163;-63
2021/10/19 12:57:24;;;;;;;0.00;0.00;;;;;;;;;;10432922;28;20045;-63
2021/10/19 13:02:28;;;;;;;0.00;0.00;;;;;;;;;;10432079;28;20047;-63
2021/10/19 13:07:34;;;;;;;0.00;0.00;;;;;;;;;;10434047;28;20061;-63
2021/10/19 13:12:37;;;;;;;0.00;0.00;;;;;;;;;;10437056;28;20048;-64
2021/10/19 13:17:43;;;;;;;0.00;0.00;;;;;;;;;;10434632;28;20053;-65
2021/10/19 13:22:47;;;;;;;0.00;0.00;;;;;;;;;;10435953;28;20151;-66
2021/10/19 13:27:51;;;;;;;0.00;0.00;;;;;;;;;;10434076;28;20044;-62
2021/10/19 13:32:55;;;;;;;0.00;0.00;;;;;;;;;;10431218;28;20037;-62
2021/10/19 13:37:59;;;;;;;0.00;0.00;;;;;;;;;;10433929;28;20406;-66
2021/10/19 13:43:06;;;;;;;0.00;0.00;;;;;;;;;;10435211;28;20047;-62
2021/10/19 13:48:11;;;;;;;0.00;0.00;;;;;;;;;;10437998;28;20137;-63
2021/10/19 13:53:14;;;;;;;0.03;0.03;;;;;;;;;;10440173;28;20144;-63
2021/10/19 13:58:17;;;;;;;0.00;0.00;;;;;;;;;;10441356;28;20065;-62
2021/10/19 14:03:21;;;;;;;0.00;0.00;;;;;;;;;;10441134;28;20063;-63
2021/10/19 14:15:00;;;;;;;0.00;0.00;;;;;;;;;;10442896;28;20071;-63
2021/10/19 14:20:06;;;;;;;0.00;0.00;;;;;;;;;;10440713;28;20060;-63
2021/10/19 14:25:09;;;;;;;0.00;0.00;;;;;;;;;;10441381;28;20041;-64
2021/10/19 14:30:12;;;;;;;0.00;0.00;;;;;;;;;;10438535;28;20059;-63
2021/10/19 14:35:18;;;;;;;0.00;0.00;;;;;;;;;;10435730;28;20890;-62
2021/10/19 14:40:21;;;;;;;0.00;0.00;;;;;;;;;;10439680;28;20115;-63
2021/10/19 14:45:23;;;;;;;0.00;0.00;;;;;;;;;;10438495;28;20056;-63
2021/10/19 14:50:28;;;;;;;0.00;0.00;;;;;;;;;;10435734;28;20475;-64
2021/10/19 14:55:31;;;;;;;0.10;0.10;;;;;;;;;;10437716;28;20380;-63
2021/10/19 15:00:34;;;;;;;0.10;0.10;;;;;;;;;;10437099;28;20041;-63
2021/10/19 15:05:38;;;;;;;0.00;0.00;;;;;;;;;;10431752;28;20040;-63
2021/10/19 15:10:42;;;;;;;0.00;0.00;;;;;;;;;;10436736;28;20193;-63
2021/10/19 15:15:46;;;;;;;0.00;0.00;;;;;;;;;;10436679;28;20037;-63
2021/10/19 15:20:51;;;;;;;0.00;0.00;;;;;;;;;;10435485;28;20049;-64
2021/10/19 15:25:53;;;;;;;0.00;0.00;;;;;;;;;;10432172;28;20381;-64
2021/10/19 15:30:56;;;;;;;0.00;0.00;;;;;;;;;;10437156;28;20501;-64
2021/10/19 15:36:01;;;;;;;0.00;0.00;;;;;;;;;;10437641;28;20328;-64
2021/10/19 15:41:07;;;;;;;0.00;0.00;;;;;;;;;;10436907;28;20072;-64
2021/10/19 15:46:10;;;;;;;0.00;0.00;;;;;;;;;;10436981;28;20135;-64
2021/10/19 15:51:17;;;;;;;0.00;0.00;;;;;;;;;;10436705;28;20190;-64
2021/10/19 15:56:20;;;;;;;0.00;0.00;;;;;;;;;;10436716;28;20033;-64
2021/10/19 16:01:41;;;;;;;0.00;0.00;;;;;;;;;;10435922;28;20053;-64
2021/10/19 16:06:46;;;;;;;0.00;0.00;;;;;;;;;;10436216;28;20067;-64
2021/10/19 16:11:49;;;;;;;0.00;0.00;;;;;;;;;;10434254;28;20063;-67
2021/10/19 16:16:53;;;;;;;0.00;0.00;;;;;;;;;;10429329;28;20120;-61
2021/10/19 16:21:59;;;;;;;0.00;0.00;;;;;;;;;;10433796;28;20095;-65
2021/10/19 16:27:03;;;;;;;0.00;0.00;;;;;;;;;;10435365;28;20515;-63
2021/10/19 16:32:06;;;;;;;0.00;0.00;;;;;;;;;;10435040;28;20047;-64
2021/10/19 16:37:11;;;;;;;0.10;0.10;;;;;;;;;;10434906;28;20110;-66
2021/10/19 16:42:15;;;;;;;0.00;0.00;;;;;;;;;;10433970;28;20109;-65
2021/10/19 16:47:19;;;;;;;0.00;0.00;;;;;;;;;;10434541;28;20041;-64
2021/10/19 16:52:23;;;;;;;0.10;0.10;;;;;;;;;;10436723;28;20943;-64
2021/10/19 16:57:27;;;;;;;0.00;0.00;;;;;;;;;;10434908;28;20122;-65
2021/10/19 17:02:29;;;;;;;0.00;0.00;;;;;;;;;;10437166;28;20055;-67
2021/10/19 17:07:34;;;;;;;0.00;0.00;;;;;;;;;;10434388;28;20040;-69
2021/10/19 17:12:39;;;;;;;0.00;0.00;;;;;;;;;;10434691;28;20616;-65
2021/10/19 17:17:42;;;;;;;0.00;0.00;;;;;;;;;;10429130;28;20057;-65
2021/10/19 17:22:47;;;;;;;0.00;0.00;;;;;;;;;;10430557;28;20453;-65
2021/10/19 17:27:51;;;;;;;0.10;0.10;;;;;;;;;;10431801;28;20052;-62
2021/10/19 17:32:56;;;;;;;0.00;0.00;;;;;;;;;;10431116;28;20914;-66
2021/10/19 17:38:00;;;;;;;0.00;0.00;;;;;;;;;;10428463;28;20120;-65
2021/10/19 17:43:04;;;;;;;0.00;0.00;;;;;;;;;;10434025;28;20041;-63
2021/10/19 17:48:07;;;;;;;0.00;0.00;;;;;;;;;;10428006;28;20053;-63
2021/10/19 17:53:11;;;;;;;0.00;0.00;;;;;;;;;;10433527;28;20099;-63
2021/10/19 17:58:14;;;;;;;0.00;0.00;;;;;;;;;;10430587;28;20053;-65
2021/10/19 18:03:18;;;;;;;0.00;0.00;;;;;;;;;;10434802;28;20049;-64
2021/10/19 18:08:22;;;;;;;0.00;0.00;;;;;;;;;;10432567;28;20045;-66
2021/10/19 18:13:25;;;;;;;0.00;0.00;;;;;;;;;;10433624;28;20037;-67
2021/10/19 18:18:28;;;;;;;0.00;0.00;;;;;;;;;;10433917;28;20052;-66
2021/10/19 18:23:32;;;;;;;0.00;0.00;;;;;;;;;;10431549;28;20049;-66
2021/10/19 18:28:36;;;;;;;0.00;0.00;;;;;;;;;;10432834;28;20552;-66
2021/10/19 18:33:39;;;;;;;0.00;0.00;;;;;;;;;;10440892;28;20514;-62
2021/10/19 18:38:43;;;;;;;0.00;0.00;;;;;;;;;;10439280;28;20060;-62
2021/10/19 18:43:46;;;;;;;0.00;0.00;;;;;;;;;;10442225;28;20037;-66
2021/10/19 18:48:54;;;;;;;0.03;0.03;;;;;;;;;;10437303;28;20052;-65
2021/10/19 18:53:58;;;;;;;0.00;0.00;;;;;;;;;;10437851;28;20051;-63
2021/10/19 18:59:02;;;;;;;0.00;0.00;;;;;;;;;;10438268;28;20136;-67
2021/10/19 19:04:05;;;;;;;0.00;0.00;;;;;;;;;;10441250;28;20114;-67
2021/10/19 19:09:10;;;;;;;0.00;0.00;;;;;;;;;;10438757;28;20051;-65
2021/10/19 19:14:15;;;;;;;0.00;0.00;;;;;;;;;;10438472;28;20075;-65
2021/10/19 19:19:18;;;;;;;0.00;0.00;;;;;;;;;;10438084;28;20053;-65
2021/10/19 19:24:23;;;;;;;0.00;0.00;;;;;;;;;;10435374;28;20163;-63
2021/10/19 19:29:27;;;;;;;0.00;0.00;;;;;;;;;;10437347;28;20784;-67
2021/10/19 19:34:30;;;;;;;0.00;0.00;;;;;;;;;;10434116;28;20049;-65
2021/10/19 19:39:38;;;;;;;0.00;0.00;;;;;;;;;;10438421;28;20064;-65
2021/10/19 19:44:43;;;;;;;0.00;0.00;;;;;;;;;;10438330;28;20103;-64
2021/10/19 19:49:46;;;;;;;0.00;0.00;;;;;;;;;;10436256;28;20049;-66
2021/10/19 19:54:50;;;;;;;0.00;0.00;;;;;;;;;;10437339;28;20040;-65
2021/10/19 19:59:55;;;;;;;0.03;0.03;;;;;;;;;;10443454;28;20091;-65
2021/10/19 20:04:58;;;;;;;0.00;0.00;;;;;;;;;;10434289;28;20041;-64
2021/10/19 20:10:04;;;;;;;0.03;0.03;;;;;;;;;;10439815;28;20505;-63
2021/10/19 20:15:07;;;;;;;0.00;0.00;;;;;;;;;;10432369;28;20395;-63
2021/10/19 20:20:11;;;;;;;0.00;0.00;;;;;;;;;;10433701;28;20057;-63
2021/10/19 20:25:15;;;;;;;0.00;0.00;;;;;;;;;;10433133;28;20044;-63
2021/10/19 20:30:18;;;;;;;0.08;0.08;;;;;;;;;;10431202;28;20757;-63
2021/10/19 20:35:22;;;;;;;0.00;0.00;;;;;;;;;;10430720;28;20047;-64
2021/10/19 20:40:29;;;;;;;0.00;0.00;;;;;;;;;;10433064;28;20037;-63
2021/10/19 20:45:32;;;;;;;0.00;0.00;;;;;;;;;;10432258;28;20048;-63
2021/10/19 20:50:36;;;;;;;0.10;0.10;;;;;;;;;;10433996;28;20044;-72
2021/10/19 20:55:40;;;;;;;0.00;0.00;;;;;;;;;;10434192;28;20043;-64
2021/10/19 21:00:43;;;;;;;0.10;0.10;;;;;;;;;;10431736;28;20123;-65
2021/10/19 21:05:47;;;;;;;0.00;0.00;;;;;;;;;;10434470;28;20068;-64
2021/10/19 21:10:51;;;;;;;0.00;0.00;;;;;;;;;;10432741;28;20044;-64
2021/10/19 21:15:55;;;;;;;0.03;0.03;;;;;;;;;;10434514;28;20067;-65
2021/10/19 21:20:58;;;;;;;0.00;0.00;;;;;;;;;;10430228;28;20059;-64
2021/10/19 21:26:04;;;;;;;0.10;0.10;;;;;;;;;;10433572;28;20041;-64
2021/10/19 21:31:06;;;;;;;0.00;0.00;;;;;;;;;;10435318;28;20056;-65
2021/10/19 21:36:10;;;;;;;0.05;0.03;;;;;;;;;;10430516;28;20052;-64
2021/10/19 21:41:14;;;;;;;0.00;0.00;;;;;;;;;;10433566;28;20041;-64
2021/10/19 21:46:17;;;;;;;0.00;0.00;;;;;;;;;;10432953;28;20064;-64
2021/10/19 21:51:20;;;;;;;0.10;0.10;;;;;;;;;;10433959;28;20041;-64
2021/10/19 21:56:25;;;;;;;0.10;0.10;;;;;;;;;;10433892;28;20095;-64
2021/10/19 22:01:29;;;;;;;0.00;0.00;;;;;;;;;;10433483;28;20391;-65
2021/10/19 22:06:32;;;;;;;0.00;0.00;;;;;;;;;;10436039;28;20053;-65
2021/10/19 22:11:37;;;;;;;0.05;0.05;;;;;;;;;;10442549;28;20045;-65
2021/10/19 22:16:40;;;;;;;0.22;0.05;;;;;;;;;;10441750;28;20609;-63
2021/10/19 22:21:43;;;;;;;0.00;0.00;;;;;;;;;;10443438;28;20518;-64
2021/10/19 22:26:48;;;;;;;0.00;0.00;;;;;;;;;;10444435;28;20036;-64
2021/10/19 22:31:52;;;;;;;0.10;0.10;;;;;;;;;;10446679;28;20041;-64
2021/10/19 22:36:57;;;;;;;0.00;0.00;;;;;;;;;;10441405;28;20044;-64
2021/10/19 22:42:02;;;;;;;0.00;0.00;;;;;;;;;;10439198;28;20045;-65
2021/10/19 22:47:05;;;;;;;0.03;0.03;;;;;;;;;;10438586;28;20053;-64
2021/10/19 22:52:08;;;;;;;0.00;0.00;;;;;;;;;;10439867;28;20053;-64
2021/10/19 22:57:14;;;;;;;0.10;0.00;;;;;;;;;;10439733;28;20072;-64
2021/10/19 23:02:17;;;;;;;0.10;0.10;;;;;;;;;;10439914;28;20498;-64
2021/10/19 23:07:20;;;;;;;0.00;0.00;;;;;;;;;;10441361;28;20395;-65
2021/10/19 23:12:24;;;;;;;0.10;0.10;;;;;;;;;;10436071;28;20052;-64
2021/10/19 23:17:28;;;;;;;0.00;0.00;;;;;;;;;;10437875;28;20060;-64
2021/10/19 23:22:32;;;;;;;0.00;0.00;;;;;;;;;;10435622;28;20452;-65
2021/10/19 23:27:36;;;;;;;0.10;0.10;;;;;;;;;;10438000;28;20045;-64
2021/10/19 23:32:40;;;;;;;0.10;0.10;;;;;;;;;;10439159;28;20170;-64
2021/10/19 23:37:43;;;;;;;0.00;0.00;;;;;;;;;;10437634;28;20037;-64
2021/10/19 23:42:48;;;;;;;0.00;0.00;;;;;;;;;;10436852;28;20056;-64
2021/10/19 23:47:51;;;;;;;0.10;0.10;;;;;;;;;;10437972;28;20065;-64
2021/10/19 23:52:54;;;;;;;0.00;0.00;;;;;;;;;;10438042;28;20136;-64
2021/10/19 23:57:58;;;;;;;0.00;0.00;;;;;;;;;;10437278;28;20043;-64
